Time;durP1;ratioP1;P1;durP2;ratioP2;P2;SDS_P1;SDS_P2;PMS_P1;PMS_P2;Temp;Humidity;BMP_temperature;BMP_pressure;BME280_temperature;BME280_humidity;BME280_pressure;Samples;Min_cycle;Max_cycle;Signal;HPM_P1;HPM_P2
2021/03/11 00:00:37;;;;;;;13.25;6.18;;;;;;;23.50;35.13;100141.41;4482729;32;34576;-49
2021/03/11 00:03:11;;;;;;;13.82;6.53;;;;;;;23.49;35.20;100145.16;4482704;32;34823;-44
2021/03/11 00:05:38;;;;;;;11.60;5.43;;;;;;;23.49;35.17;100150.59;4482728;32;34712;-51
2021/03/11 00:08:05;;;;;;;12.37;5.47;;;;;;;23.48;35.13;100156.28;4479571;32;34334;-62
2021/03/11 00:10:33;;;;;;;11.23;5.80;;;;;;;23.48;35.21;100153.56;4483114;32;33555;-52
2021/03/11 00:13:00;;;;;;;17.83;5.80;;;;;;;23.46;35.23;100151.06;4484751;32;33681;-51
2021/03/11 00:15:27;;;;;;;18.15;5.87;;;;;;;23.43;35.29;100152.31;4484524;32;33843;-47
2021/03/11 00:17:55;;;;;;;15.52;5.80;;;;;;;23.42;35.28;100149.81;4484726;32;34653;-43
2021/03/11 00:20:24;;;;;;;13.05;5.87;;;;;;;23.41;35.40;100142.72;4485060;32;34615;-64
2021/03/11 00:22:51;;;;;;;19.27;6.35;;;;;;;23.40;34.94;100141.03;4484583;31;33947;-52
2021/03/11 00:25:21;;;;;;;17.95;6.07;;;;;;;23.41;34.98;100137.28;4484795;32;33846;-60
2021/03/11 00:27:48;;;;;;;15.73;6.03;;;;;;;23.41;35.09;100143.56;4484594;32;33942;-45
2021/03/11 00:30:16;;;;;;;18.23;5.85;;;;;;;23.40;35.08;100141.84;4484626;32;34650;-44
2021/03/11 00:32:43;;;;;;;13.60;5.43;;;;;;;23.38;35.00;100141.25;4484826;32;34562;-44
2021/03/11 00:35:11;;;;;;;13.10;6.20;;;;;;;23.38;35.02;100134.97;4484687;32;33651;-47
2021/03/11 00:37:38;;;;;;;13.77;6.18;;;;;;;23.36;35.13;100135.19;4482264;32;34377;-49
2021/03/11 00:40:07;;;;;;;16.02;6.57;;;;;;;23.34;35.16;100131.84;4484698;32;33869;-59
2021/03/11 00:42:34;;;;;;;16.17;5.70;;;;;;;23.35;35.17;100132.69;4484874;32;33915;-59
2021/03/11 00:45:01;;;;;;;11.63;5.20;;;;;;;23.34;35.24;100131.00;4484348;32;33768;-61
2021/03/11 00:47:29;;;;;;;16.98;6.05;;;;;;;23.33;35.23;100137.50;4484649;32;33302;-50
2021/03/11 00:49:56;;;;;;;11.27;5.60;;;;;;;23.32;35.24;100135.84;4484860;32;33821;-60
2021/03/11 00:52:24;;;;;;;11.05;5.75;;;;;;;23.32;35.28;100135.84;4484420;32;33638;-56
2021/03/11 00:54:51;;;;;;;11.55;5.62;;;;;;;23.29;35.30;100123.50;4484769;32;33438;-62
2021/03/11 00:57:20;;;;;;;16.17;4.90;;;;;;;23.30;35.32;100127.06;4484903;32;34178;-53
2021/03/11 00:59:47;;;;;;;13.30;5.30;;;;;;;23.30;35.34;100124.31;4484751;32;33769;-60
2021/03/11 01:02:15;;;;;;;13.35;5.93;;;;;;;23.28;35.34;100123.72;4484580;32;34031;-63
2021/03/11 01:04:43;;;;;;;10.90;5.70;;;;;;;23.27;35.35;100124.75;4484667;32;33986;-56
2021/03/11 01:07:11;;;;;;;11.40;5.40;;;;;;;23.26;35.37;100113.03;4484706;32;34403;-55
2021/03/11 01:09:39;;;;;;;14.35;5.60;;;;;;;23.25;35.38;100108.66;4484799;32;34146;-59
2021/03/11 01:12:06;;;;;;;11.20;5.40;;;;;;;23.25;35.45;100105.94;4484465;32;33565;-56
2021/03/11 01:14:33;;;;;;;12.27;5.45;;;;;;;23.23;35.46;100108.03;4484319;32;33916;-55
2021/03/11 01:17:00;;;;;;;12.70;5.68;;;;;;;23.23;35.53;100110.75;4484382;32;34246;-47
2021/03/11 01:19:28;;;;;;;8.90;5.20;;;;;;;23.22;35.59;100116.41;4484371;32;33587;-45
2021/03/11 01:21:55;;;;;;;10.93;5.07;;;;;;;23.20;35.65;100116.62;4484493;32;34563;-50
2021/03/11 01:24:22;;;;;;;13.00;5.05;;;;;;;23.20;35.71;100124.81;4484476;32;33557;-46
2021/03/11 01:26:49;;;;;;;9.90;5.40;;;;;;;23.19;35.65;100112.25;4484357;32;33431;-47
2021/03/11 01:29:16;;;;;;;9.68;4.80;;;;;;;23.19;35.62;100112.25;4484113;32;33906;-49
2021/03/11 01:31:43;;;;;;;9.90;5.47;;;;;;;23.19;35.58;100108.69;4475478;32;33939;-48
2021/03/11 01:34:11;;;;;;;13.32;5.25;;;;;;;23.18;35.63;100099.69;4468919;32;33751;-47
2021/03/11 01:36:38;;;;;;;13.48;5.37;;;;;;;23.17;35.63;100101.59;4482725;32;33315;-48
2021/03/11 01:39:05;;;;;;;12.13;5.43;;;;;;;23.16;35.68;100105.34;4483277;32;34041;-44
2021/03/11 01:41:33;;;;;;;9.80;5.05;;;;;;;23.16;35.68;100112.66;4484353;32;33726;-54
2021/03/11 01:44:00;;;;;;;9.98;5.12;;;;;;;23.16;35.73;100105.34;4484086;32;33871;-61
2021/03/11 01:46:27;;;;;;;11.40;5.32;;;;;;;23.15;35.65;100100.12;4484330;32;33307;-66
2021/03/11 01:48:54;;;;;;;11.35;5.28;;;;;;;23.14;35.87;100093.84;4484419;32;33806;-64
2021/03/11 01:51:22;;;;;;;12.05;4.97;;;;;;;23.14;35.92;100087.56;4484269;32;34767;-61
2021/03/11 01:53:49;;;;;;;13.05;5.00;;;;;;;23.13;35.88;100100.34;4482657;32;34033;-67
2021/03/11 01:56:16;;;;;;;13.70;6.00;;;;;;;23.13;35.87;100102.25;4483029;32;33812;-52
2021/03/11 01:58:43;;;;;;;11.93;5.07;;;;;;;23.13;35.85;100105.78;4482563;32;33883;-61
2021/03/11 02:01:10;;;;;;;9.15;4.87;;;;;;;23.11;35.89;100107.88;4483129;32;34699;-62
2021/03/11 02:03:38;;;;;;;14.80;5.30;;;;;;;23.10;35.85;100099.94;4470028;32;33769;-53
2021/03/11 02:06:05;;;;;;;12.20;5.40;;;;;;;23.10;36.03;100102.66;4482615;32;34075;-53
2021/03/11 02:08:32;;;;;;;14.68;5.62;;;;;;;23.09;35.92;100099.09;4483883;32;33894;-60
2021/03/11 02:10:59;;;;;;;11.32;5.45;;;;;;;23.07;35.94;100101.19;4480866;32;96597;-56
2021/03/11 02:13:44;;;;;;;12.35;5.62;;;;;;;23.07;35.90;100106.62;4482588;32;33871;-67
2021/03/11 02:16:37;;;;;;;14.07;5.20;;;;;;;23.07;35.85;100095.75;4482718;32;33764;-63
2021/03/11 02:19:42;;;;;;;9.77;4.70;;;;;;;23.07;35.96;100093.03;4482669;32;34673;-65
2021/03/11 02:22:12;;;;;;;10.90;5.07;;;;;;;23.07;35.97;100092.19;4484088;32;33806;-63
2021/03/11 02:25:21;;;;;;;12.57;5.43;;;;;;;23.03;35.98;100089.06;4483727;32;33588;-55
2021/03/11 02:28:01;;;;;;;12.52;4.75;;;;;;;23.03;35.88;100091.78;4471219;32;33062;-53
2021/03/11 02:30:28;;;;;;;12.95;5.30;;;;;;;23.03;36.05;100088.22;4469711;32;34749;-65
2021/03/11 02:32:55;;;;;;;11.88;4.90;;;;;;;23.01;36.08;100084.91;4453655;32;33973;-67
2021/03/11 02:35:23;;;;;;;12.30;5.47;;;;;;;23.00;36.03;100096.84;4469705;32;33659;-49
2021/03/11 02:37:50;;;;;;;10.65;5.18;;;;;;;23.00;36.02;100083.25;4478233;32;33299;-46
2021/03/11 02:40:23;;;;;;;9.07;4.75;;;;;;;22.98;36.06;100083.44;4481878;32;33654;-58
2021/03/11 02:42:51;;;;;;;10.95;5.22;;;;;;;22.98;36.02;100077.16;4456645;32;33899;-54
2021/03/11 02:45:23;;;;;;;11.12;4.62;;;;;;;22.98;36.03;100074.44;4467014;32;34052;-65
2021/03/11 02:47:51;;;;;;;8.63;4.65;;;;;;;22.98;36.00;100066.28;4482500;32;33536;-60
2021/03/11 02:50:31;;;;;;;10.60;4.87;;;;;;;22.97;35.98;100073.63;4482466;32;33876;-61
2021/03/11 02:53:03;;;;;;;10.70;4.85;;;;;;;22.97;36.06;100065.44;4482485;32;34030;-58
2021/03/11 02:55:31;;;;;;;10.70;5.15;;;;;;;22.96;36.06;100079.28;4482466;32;34574;-46
2021/03/11 02:57:58;;;;;;;11.57;5.00;;;;;;;22.96;36.12;100074.69;4483487;32;33335;-45
2021/03/11 03:00:25;;;;;;;11.95;4.82;;;;;;;22.95;36.09;100067.56;4482224;32;33765;-57
2021/03/11 03:02:52;;;;;;;9.35;4.90;;;;;;;22.95;36.15;100066.75;4483353;32;34494;-55
2021/03/11 03:05:21;;;;;;;11.38;4.97;;;;;;;22.94;36.20;100070.50;4483424;32;34848;-58
2021/03/11 03:07:49;;;;;;;8.27;4.18;;;;;;;22.92;36.17;100071.53;4482199;32;33376;-63
2021/03/11 03:10:23;;;;;;;12.88;4.95;;;;;;;22.93;36.11;100069.66;4481953;32;33556;-60
2021/03/11 03:12:51;;;;;;;12.07;5.62;;;;;;;22.93;36.13;100069.66;4481001;32;33862;-49
2021/03/11 03:15:21;;;;;;;9.48;4.68;;;;;;;22.92;36.11;100068.00;4454860;32;34714;-53
2021/03/11 03:17:48;;;;;;;13.23;4.62;;;;;;;22.92;36.13;100068.00;4476260;32;33239;-49
2021/03/11 03:20:17;;;;;;;11.23;4.43;;;;;;;22.91;36.18;100066.34;4481992;32;34755;-48
2021/03/11 03:22:44;;;;;;;10.20;4.45;;;;;;;22.90;36.21;100068.22;4482910;32;34756;-44
2021/03/11 03:25:12;;;;;;;11.57;4.93;;;;;;;22.91;36.21;100074.50;4481925;32;34846;-60
2021/03/11 03:27:40;;;;;;;9.55;4.57;;;;;;;22.90;36.23;100073.66;4483200;32;33514;-52
2021/03/11 03:30:15;;;;;;;8.52;4.45;;;;;;;22.89;36.24;100080.13;4483120;32;33904;-43
2021/03/11 03:32:43;;;;;;;10.50;4.07;;;;;;;22.89;36.24;100071.13;4483019;32;34526;-44
2021/03/11 03:35:10;;;;;;;17.17;5.00;;;;;;;22.88;36.38;100064.84;4482684;32;34368;-46
2021/03/11 03:37:37;;;;;;;8.55;4.55;;;;;;;22.87;36.51;100062.34;4482954;32;33406;-46
2021/03/11 03:40:06;;;;;;;9.27;5.10;;;;;;;22.88;36.43;100064.00;4483208;32;34114;-44
2021/03/11 03:42:36;;;;;;;12.73;4.85;;;;;;;22.87;36.48;100063.16;4481757;32;34126;-47
2021/03/11 03:45:04;;;;;;;12.68;4.40;;;;;;;22.86;36.51;100061.50;4482563;32;34159;-49
2021/03/11 03:47:31;;;;;;;9.23;4.85;;;;;;;22.87;36.50;100062.34;4483745;32;34280;-50
2021/03/11 03:49:58;;;;;;;9.48;4.35;;;;;;;22.85;36.52;100064.44;4483805;32;34707;-52
2021/03/11 03:52:25;;;;;;;7.95;4.12;;;;;;;22.86;36.54;100071.56;4483414;32;34446;-54
2021/03/11 03:54:53;;;;;;;11.65;4.85;;;;;;;22.85;36.46;100073.44;4483732;32;34403;-43
2021/03/11 03:57:21;;;;;;;13.02;4.55;;;;;;;22.85;36.50;100069.91;4470664;32;33972;-44
2021/03/11 03:59:48;;;;;;;9.32;4.65;;;;;;;22.83;36.53;100067.37;4484643;32;33783;-47
2021/03/11 04:02:17;;;;;;;12.35;4.70;;;;;;;22.83;36.53;100077.41;4483910;32;33960;-53
2021/03/11 04:04:49;;;;;;;10.05;4.65;;;;;;;22.82;36.40;100067.59;4484977;32;33618;-44
2021/03/11 04:07:18;;;;;;;9.23;4.32;;;;;;;22.82;36.50;100071.16;4483693;32;34378;-46
2021/03/11 04:09:45;;;;;;;8.93;4.00;;;;;;;22.82;36.55;100068.44;4483326;32;34461;-45
2021/03/11 04:12:14;;;;;;;13.75;4.60;;;;;;;22.82;36.52;100087.47;4470465;32;34637;-48
2021/03/11 04:14:41;;;;;;;7.72;3.90;;;;;;;22.81;36.49;100071.37;4470594;32;34913;-43
2021/03/11 04:17:08;;;;;;;10.35;4.50;;;;;;;22.80;36.54;100078.69;4483619;32;33994;-58
2021/03/11 04:19:36;;;;;;;12.00;4.62;;;;;;;22.79;36.52;100085.16;4470550;32;33456;-57
2021/03/11 04:22:03;;;;;;;8.40;4.87;;;;;;;22.79;36.49;100084.34;4483427;31;34658;-45
2021/03/11 04:24:31;;;;;;;8.10;4.05;;;;;;;22.79;36.58;100085.16;4483195;32;33921;-58
2021/03/11 04:27:02;;;;;;;12.50;4.93;;;;;;;22.79;36.44;100096.06;4467783;32;33565;-44
2021/03/11 04:29:29;;;;;;;8.63;4.25;;;;;;;22.79;36.57;100078.91;4467816;32;33737;-42
2021/03/11 04:31:56;;;;;;;12.13;4.22;;;;;;;22.78;36.59;100079.94;4454910;32;34597;-50
2021/03/11 04:34:23;;;;;;;12.30;4.45;;;;;;;22.76;36.58;100080.19;4467559;32;34048;-57
2021/03/11 04:36:50;;;;;;;11.50;4.10;;;;;;;22.77;36.56;100081.00;4468990;32;33306;-44
2021/03/11 04:39:18;;;;;;;9.40;4.37;;;;;;;22.76;36.58;100079.34;4457277;32;34805;-53
2021/03/11 04:41:46;;;;;;;9.82;4.32;;;;;;;22.75;36.49;100073.03;4484236;32;33810;-60
2021/03/11 04:44:13;;;;;;;10.15;4.45;;;;;;;22.76;36.55;100079.34;4470390;32;34496;-44
2021/03/11 04:46:40;;;;;;;10.70;4.60;;;;;;;22.75;36.55;100078.47;4470607;32;33425;-58
2021/03/11 04:49:07;;;;;;;10.15;4.68;;;;;;;22.75;36.64;100064.88;4482991;32;33906;-48
2021/03/11 04:51:35;;;;;;;5.85;3.55;;;;;;;22.74;36.59;100073.28;4470587;32;33860;-52
2021/03/11 04:54:02;;;;;;;8.55;4.22;;;;;;;22.73;36.59;100064.28;4470402;32;33719;-61
2021/03/11 04:56:46;;;;;;;9.75;4.18;;;;;;;22.73;36.58;100075.16;4472083;32;33283;-56
2021/03/11 04:59:14;;;;;;;8.13;4.00;;;;;;;22.73;36.56;100079.78;4483085;32;34831;-44
2021/03/11 05:01:43;;;;;;;9.35;4.28;;;;;;;22.73;36.60;100077.03;4484576;32;33952;-55
2021/03/11 05:04:10;;;;;;;7.60;4.00;;;;;;;22.72;36.57;100075.38;4483235;32;34766;-52
2021/03/11 05:06:38;;;;;;;6.62;3.65;;;;;;;22.71;36.53;100071.84;4483169;32;33275;-51
2021/03/11 05:09:05;;;;;;;7.87;3.95;;;;;;;22.70;36.57;100070.13;4484250;32;34402;-63
2021/03/11 05:11:32;;;;;;;8.18;3.78;;;;;;;22.70;36.62;100070.13;4484340;32;34675;-44
2021/03/11 05:13:59;;;;;;;9.57;4.50;;;;;;;22.69;36.60;100078.53;4484186;32;34506;-49
2021/03/11 05:16:26;;;;;;;8.63;4.10;;;;;;;22.69;36.57;100079.34;4484370;32;34265;-50
2021/03/11 05:18:53;;;;;;;12.25;4.60;;;;;;;22.70;36.64;100072.03;4484519;32;34750;-43
2021/03/11 05:21:20;;;;;;;12.90;4.12;;;;;;;22.70;36.66;100077.47;4484230;32;34665;-50
2021/03/11 05:23:58;;;;;;;10.60;4.32;;;;;;;22.69;36.63;100067.66;4484180;32;33557;-60
2021/03/11 05:26:28;;;;;;;9.10;3.92;;;;;;;22.67;36.63;100067.87;4484307;32;33636;-45
2021/03/11 05:28:55;;;;;;;11.68;4.60;;;;;;;22.66;36.67;100077.06;4484221;32;34247;-49
2021/03/11 05:31:23;;;;;;;8.40;4.10;;;;;;;22.67;36.62;100079.56;4484033;32;34926;-49
2021/03/11 05:33:51;;;;;;;8.63;3.92;;;;;;;22.66;36.60;100067.03;4484088;32;33006;-47
2021/03/11 05:36:18;;;;;;;10.68;4.82;;;;;;;22.65;36.62;100076.22;4483316;32;33323;-46
2021/03/11 05:38:45;;;;;;;7.62;3.85;;;;;;;22.65;36.62;100073.50;4484266;32;33825;-52
2021/03/11 05:41:13;;;;;;;14.23;4.62;;;;;;;22.65;36.62;100086.28;4484294;32;33876;-48
2021/03/11 05:43:42;;;;;;;7.05;3.78;;;;;;;22.64;36.62;100099.03;4484123;32;33668;-50
2021/03/11 05:46:12;;;;;;;8.65;4.05;;;;;;;22.64;36.61;100093.59;4484048;32;34044;-47
2021/03/11 05:48:40;;;;;;;8.70;3.80;;;;;;;22.65;36.61;100097.16;4482975;32;34010;-45
2021/03/11 05:51:08;;;;;;;7.85;4.12;;;;;;;22.63;36.62;100096.53;4483929;32;33973;-55
2021/03/11 05:53:36;;;;;;;7.93;3.90;;;;;;;22.62;36.59;100093.00;4484263;32;34515;-51
2021/03/11 05:56:06;;;;;;;6.95;3.87;;;;;;;22.63;36.63;100082.94;4482889;32;33302;-50
2021/03/11 05:58:33;;;;;;;6.90;3.62;;;;;;;22.62;36.59;100084.84;4483832;32;33784;-58
2021/03/11 06:01:04;;;;;;;7.05;3.85;;;;;;;22.62;36.69;100086.72;4484124;32;33884;-43
2021/03/11 06:03:31;;;;;;;6.70;3.55;;;;;;;22.60;36.70;100086.91;4482812;32;33990;-46
2021/03/11 06:05:59;;;;;;;8.73;4.00;;;;;;;22.62;36.45;100090.28;4483911;32;33756;-53
2021/03/11 06:08:26;;;;;;;11.95;4.18;;;;;;;22.62;36.59;100090.28;4482834;32;34520;-48
2021/03/11 06:10:55;;;;;;;9.80;4.00;;;;;;;22.66;36.66;100094.25;4483768;32;33651;-48
2021/03/11 06:13:23;;;;;;;11.95;4.10;;;;;;;22.77;36.69;100081.00;4483581;32;33724;-50
2021/03/11 06:15:56;;;;;;;7.28;3.80;;;;;;;22.96;36.62;100095.63;4483982;32;33180;-51
2021/03/11 06:18:23;;;;;;;9.60;3.97;;;;;;;23.15;36.43;100092.78;4483886;32;33685;-47
2021/03/11 06:20:50;;;;;;;11.10;4.05;;;;;;;23.33;36.18;100089.34;4469597;32;34645;-46
2021/03/11 06:23:17;;;;;;;9.57;3.35;;;;;;;23.53;35.93;100093.81;4469549;32;33962;-57
2021/03/11 06:25:44;;;;;;;6.03;3.45;;;;;;;23.68;35.79;100087.00;4483528;32;33356;-49
2021/03/11 06:28:11;;;;;;;10.45;4.15;;;;;;;23.83;35.59;100092.16;4483920;32;33633;-51
2021/03/11 06:30:41;;;;;;;7.05;3.60;;;;;;;23.96;35.40;100093.91;4484150;32;33942;-51
2021/03/11 06:33:08;;;;;;;7.53;3.70;;;;;;;24.06;35.23;100097.00;4483864;32;34637;-59
2021/03/11 06:35:37;;;;;;;16.67;3.92;;;;;;;24.17;35.08;100101.72;4483810;32;33135;-64
2021/03/11 06:38:05;;;;;;;9.05;3.60;;;;;;;24.23;34.99;100091.78;4484025;32;33780;-57
2021/03/11 06:40:32;;;;;;;7.60;3.95;;;;;;;24.30;34.89;100092.56;4483881;32;34031;-44
2021/03/11 06:43:10;;;;;;;7.55;3.53;;;;;;;24.33;34.80;100105.75;4483665;32;34062;-51
2021/03/11 06:45:38;;;;;;;9.25;3.67;;;;;;;24.39;34.73;100104.06;4483706;32;33329;-60
2021/03/11 06:48:25;;;;;;;9.15;3.75;;;;;;;24.40;34.76;100105.72;4482562;32;33845;-45
2021/03/11 06:50:53;;;;;;;8.13;3.70;;;;;;;24.43;34.84;100108.84;4482282;32;33867;-55
2021/03/11 06:53:20;;;;;;;10.65;3.55;;;;;;;24.43;34.76;100107.97;4483334;32;33783;-48
2021/03/11 06:55:47;;;;;;;11.20;3.50;;;;;;;24.42;34.83;100119.94;4483547;32;33480;-57
2021/03/11 06:58:25;;;;;;;9.60;3.72;;;;;;;24.42;34.93;100100.84;4483365;32;33783;-54
2021/03/11 07:01:03;;;;;;;7.32;3.58;;;;;;;24.39;35.08;100106.78;4483297;32;33535;-50
2021/03/11 07:03:40;;;;;;;8.70;3.83;;;;;;;24.39;35.11;100113.06;4483609;32;33564;-49
2021/03/11 07:06:08;;;;;;;11.95;4.15;;;;;;;24.37;35.11;100112.44;4483212;32;34196;-42
2021/03/11 07:08:49;;;;;;;13.35;4.53;;;;;;;24.35;35.21;100113.72;4483485;32;34474;-49
2021/03/11 07:11:17;;;;;;;9.23;3.97;;;;;;;24.33;35.25;100107.63;4466521;32;34912;-51
2021/03/11 07:13:44;;;;;;;8.13;4.28;;;;;;;24.30;35.27;100110.84;4476737;32;34446;-48
2021/03/11 07:16:15;;;;;;;10.43;3.62;;;;;;;24.26;35.35;100120.50;4469049;32;34294;-57
2021/03/11 07:18:43;;;;;;;11.60;3.90;;;;;;;24.23;35.37;100124.50;4485363;32;33983;-57
2021/03/11 07:21:10;;;;;;;9.98;3.42;;;;;;;24.20;35.37;100130.41;4488435;31;33918;-50
2021/03/11 07:23:44;;;;;;;10.77;3.60;;;;;;;24.18;35.30;100135.25;4488510;32;33997;-56
2021/03/11 07:26:12;;;;;;;10.15;3.97;;;;;;;24.17;35.38;100128.97;4488483;32;34176;-46
2021/03/11 07:28:44;;;;;;;9.52;3.67;;;;;;;24.15;35.25;100127.50;4474939;32;33644;-53
2021/03/11 07:31:12;;;;;;;11.32;3.65;;;;;;;24.13;35.42;100129.63;4488594;32;34737;-43
2021/03/11 07:33:39;;;;;;;10.25;3.65;;;;;;;24.10;35.29;100128.19;4488314;32;34480;-53
2021/03/11 07:36:07;;;;;;;10.55;2.83;;;;;;;24.05;35.50;100128.03;4488252;32;34027;-58
2021/03/11 07:38:34;;;;;;;15.85;3.62;;;;;;;24.03;35.52;100121.97;4488104;32;33540;-47
2021/03/11 07:41:09;;;;;;;8.85;3.62;;;;;;;24.02;35.52;100112.13;4488197;32;35040;-54
2021/03/11 07:43:37;;;;;;;13.45;3.90;;;;;;;23.99;35.57;100120.75;4488144;32;34037;-54
2021/03/11 07:46:05;;;;;;;10.52;3.97;;;;;;;23.97;35.70;100122.88;4458394;32;33552;-47
2021/03/11 07:48:33;;;;;;;9.63;3.62;;;;;;;23.94;35.75;100126.03;4472361;32;33874;-53
2021/03/11 07:51:02;;;;;;;11.18;4.00;;;;;;;23.92;35.73;100117.22;4458274;32;33802;-42
2021/03/11 07:53:29;;;;;;;12.30;4.00;;;;;;;23.90;35.76;100120.19;4472299;32;33883;-50
2021/03/11 07:55:56;;;;;;;14.77;4.47;;;;;;;23.87;35.73;100112.44;4472374;32;33133;-43
2021/03/11 07:58:43;;;;;;;10.90;3.50;;;;;;;23.84;35.77;100115.63;4472377;32;34369;-60
2021/03/11 08:01:11;;;;;;;15.57;3.97;;;;;;;23.84;35.66;100117.53;4457996;32;33885;-43
2021/03/11 08:03:39;;;;;;;9.60;3.50;;;;;;;23.82;35.71;100111.44;4472246;32;35159;-53
2021/03/11 08:06:26;;;;;;;10.82;3.62;;;;;;;23.80;35.80;100110.84;4446177;32;33969;-45
2021/03/11 08:08:54;;;;;;;10.65;3.70;;;;;;;23.80;35.73;100110.84;4472020;32;34654;-43
2021/03/11 08:11:37;;;;;;;18.08;8.43;;;;;;;23.75;35.64;100107.94;4484170;32;33846;-58
2021/03/11 08:14:21;;;;;;;26.37;7.72;;;;;;;23.74;31.49;100109.00;4487580;32;34355;-53
2021/03/11 08:16:49;;;;;;;28.27;7.78;;;;;;;23.63;32.55;100107.78;4487834;32;33398;-49
2021/03/11 08:19:35;;;;;;;21.30;7.47;;;;;;;23.57;33.41;100097.78;4482598;32;33969;-48
2021/03/11 08:22:05;;;;;;;23.27;7.20;;;;;;;23.55;33.38;100099.88;4486827;31;33613;-51
2021/03/11 08:24:39;;;;;;;;;;;;;;;23.50;33.41;100103.28;4473958;32;34615;-53
2021/03/11 08:27:31;;;;;;;15.13;6.93;;;;;;;23.59;33.25;100101.94;4487374;32;33131;-46
2021/03/11 08:30:06;;;;;;;17.75;6.20;;;;;;;23.50;33.58;100102.41;4485729;32;33593;-54
2021/03/11 08:32:49;;;;;;;15.73;6.53;;;;;;;23.42;33.79;100098.91;4483779;32;33596;-46
2021/03/11 08:35:26;;;;;;;;;;;;;;;23.45;33.90;100099.53;4484942;32;33713;-46
2021/03/11 08:37:54;;;;;;;19.85;6.40;;;;;;;23.50;33.86;100103.28;4484722;32;33389;-58
2021/03/11 08:40:37;;;;;;;21.27;5.68;;;;;;;23.42;34.10;100090.75;4483302;32;33538;-44
2021/03/11 08:43:06;;;;;;;17.23;6.07;;;;;;;23.39;34.31;100088.44;4484436;32;33882;-47
2021/03/11 08:45:33;;;;;;;15.45;5.85;;;;;;;23.36;34.47;100086.19;4484530;32;33411;-52
2021/03/11 08:48:18;;;;;;;;;;;;;;;23.36;34.57;100085.31;4484679;32;33233;-58
2021/03/11 08:50:53;;;;;;;11.68;5.78;;;;;;;23.47;34.42;100078.38;4484556;32;34164;-46
2021/03/11 08:53:36;;;;;;;15.25;6.20;;;;;;;23.37;34.74;100082.41;4484497;32;33657;-56
2021/03/11 08:56:15;;;;;;;16.42;5.37;;;;;;;23.35;34.82;100070.87;4484532;32;34406;-44
2021/03/11 08:59:01;;;;;;;11.67;5.13;;;;;;;23.34;34.87;100069.22;4484297;32;34390;-60
2021/03/11 09:01:31;;;;;;;17.75;6.15;;;;;;;23.35;34.92;100067.31;4484140;32;33671;-49
2021/03/11 09:03:59;;;;;;;12.23;5.60;;;;;;;23.31;35.02;100072.38;4484158;32;33804;-50
2021/03/11 09:06:55;;;;;;;16.60;5.68;;;;;;;23.31;35.04;100066.09;4484622;32;34351;-52
2021/03/11 09:09:41;;;;;;;13.07;5.43;;;;;;;23.31;35.10;100053.31;4484358;32;33299;-64
2021/03/11 09:12:20;;;;;;;15.90;5.90;;;;;;;23.32;35.01;100048.72;4482953;32;34178;-60
2021/03/11 09:14:48;;;;;;;16.10;5.72;;;;;;;23.28;35.09;100042.03;4484233;32;33400;-51
2021/03/11 09:17:19;;;;;;;18.25;6.35;;;;;;;23.29;35.19;100041.00;4484380;32;33819;-49
2021/03/11 09:19:50;;;;;;;17.17;5.37;;;;;;;23.30;35.36;100034.47;4484271;32;33444;-49
2021/03/11 09:22:32;;;;;;;12.18;5.12;;;;;;;23.35;35.45;100037.37;4484010;32;33707;-45
2021/03/11 09:25:15;;;;;;;12.50;5.55;;;;;;;23.46;35.36;100028.50;4484000;32;33881;-43
2021/03/11 09:27:59;;;;;;;14.27;5.35;;;;;;;23.59;35.29;100027.56;4484334;32;34021;-55
2021/03/11 09:30:36;;;;;;;17.05;6.22;;;;;;;23.73;35.05;100017.41;4484316;32;33361;-57
2021/03/11 09:33:13;;;;;;;12.93;5.05;;;;;;;23.84;34.90;100030.31;4484563;32;34837;-48
2021/03/11 09:35:41;;;;;;;16.60;5.07;;;;;;;23.95;34.73;100035.03;4479402;32;34760;-57
2021/03/11 09:38:11;;;;;;;19.77;6.30;;;;;;;24.04;34.53;100036.41;4485690;31;33938;-43
2021/03/11 09:40:43;;;;;;;16.62;5.45;;;;;;;24.17;34.32;100028.09;4484121;32;33453;-57
2021/03/11 09:43:18;;;;;;;15.77;6.07;;;;;;;24.30;34.13;100016.22;4482532;32;33896;-50
2021/03/11 09:46:01;;;;;;;16.00;5.37;;;;;;;24.46;33.88;100012.06;4484018;32;33813;-51
2021/03/11 09:48:33;;;;;;;16.45;5.65;;;;;;;24.58;33.77;100020.34;4484016;32;34806;-60
2021/03/11 09:51:21;;;;;;;13.40;5.25;;;;;;;24.72;33.57;100027.28;4483701;32;33338;-55
2021/03/11 09:53:57;;;;;;;16.50;5.90;;;;;;;24.83;33.42;100025.66;4483965;32;33459;-46
2021/03/11 09:56:38;;;;;;;12.25;5.15;;;;;;;24.91;33.32;100011.72;4483882;32;33429;-51
2021/03/11 09:59:07;;;;;;;12.07;4.97;;;;;;;24.98;33.21;100020.63;4483957;32;34578;-46
2021/03/11 10:01:36;;;;;;;10.40;5.60;;;;;;;25.03;33.12;100009.84;4484295;32;33596;-48
2021/03/11 10:04:24;;;;;;;14.43;5.20;;;;;;;25.07;33.05;100011.06;4483835;32;33574;-44
2021/03/11 10:06:52;;;;;;;14.02;5.37;;;;;;;25.14;32.94;99998.16;4484190;32;34843;-44
2021/03/11 10:09:20;;;;;;;11.20;5.12;;;;;;;25.12;32.95;99994.81;4483930;32;33626;-58
2021/03/11 10:11:54;;;;;;;15.82;5.00;;;;;;;25.12;32.91;99986.63;4482538;32;33039;-54
2021/03/11 10:14:29;;;;;;;11.18;5.25;;;;;;;25.11;32.89;99984.16;4483427;32;33770;-46
2021/03/11 10:17:06;;;;;;;17.02;5.32;;;;;;;25.10;32.91;99986.03;4483836;32;34792;-56
2021/03/11 10:19:35;;;;;;;14.80;4.93;;;;;;;25.11;33.03;99975.97;4483632;32;33749;-66
2021/03/11 10:22:10;;;;;;;10.60;4.65;;;;;;;25.09;33.19;99969.91;4483646;32;33541;-58
2021/03/11 10:24:50;;;;;;;9.95;4.75;;;;;;;25.06;33.22;99959.41;4483995;32;34921;-47
2021/03/11 10:27:32;;;;;;;15.55;5.18;;;;;;;25.05;33.27;99955.03;4483825;32;33945;-54
2021/03/11 10:30:13;;;;;;;10.32;4.70;;;;;;;25.02;33.35;99961.78;4483761;32;33860;-53
2021/03/11 10:32:41;;;;;;;13.13;5.57;;;;;;;24.98;33.33;99957.84;4483987;32;33053;-57
2021/03/11 10:35:23;;;;;;;12.23;5.30;;;;;;;24.93;33.36;99960.44;4483847;32;33507;-44
2021/03/11 10:37:50;;;;;;;13.35;5.35;;;;;;;24.90;33.47;99959.03;4478724;32;33733;-57
2021/03/11 10:40:25;;;;;;;16.42;4.95;;;;;;;24.87;33.42;99950.47;4489962;31;34764;-60
2021/03/11 10:42:56;;;;;;;13.20;5.72;;;;;;;24.84;33.27;99945.44;4483520;32;33342;-59
2021/03/11 10:45:26;;;;;;;17.77;5.80;;;;;;;24.77;33.37;99951.03;4483523;32;33859;-51
2021/03/11 10:48:04;;;;;;;16.33;5.65;;;;;;;24.73;33.27;99947.09;4482625;32;35649;-64
2021/03/11 10:50:58;;;;;;;22.30;5.80;;;;;;;24.73;33.12;99941.63;4483513;32;34057;-62
2021/03/11 10:53:37;;;;;;;19.30;5.97;;;;;;;24.70;33.23;99936.62;4480265;32;33215;-61
2021/03/11 10:56:08;;;;;;;19.00;5.35;;;;;;;24.65;33.34;99939.22;4483399;32;33752;-66
2021/03/11 10:58:37;;;;;;;16.12;5.72;;;;;;;24.59;33.52;99932.78;4483726;32;33590;-46
2021/03/11 11:01:13;;;;;;;14.45;5.22;;;;;;;24.55;33.63;99919.84;4483558;32;33444;-55
2021/03/11 11:03:42;;;;;;;15.18;5.37;;;;;;;24.53;33.80;99906.44;4483549;32;33389;-53
2021/03/11 11:06:10;;;;;;;16.35;6.18;;;;;;;24.50;33.88;99897.88;4483372;32;33767;-56
2021/03/11 11:08:39;;;;;;;18.90;5.07;;;;;;;24.49;33.99;99898.97;4483355;32;34722;-63
2021/03/11 11:11:07;;;;;;;17.75;5.35;;;;;;;24.43;34.06;99884.31;4482998;32;34783;-59
2021/03/11 11:13:34;;;;;;;18.48;5.43;;;;;;;24.41;34.22;99881.84;4483329;32;33443;-65
2021/03/11 11:16:01;;;;;;;10.65;5.10;;;;;;;24.39;34.29;99873.06;4483414;32;34641;-65
2021/03/11 11:18:28;;;;;;;12.70;5.40;;;;;;;24.39;34.41;99874.97;4483265;32;34047;-62
2021/03/11 11:21:00;;;;;;;16.75;5.60;;;;;;;24.36;34.46;99872.66;4483045;32;34650;-60
2021/03/11 11:23:27;;;;;;;16.15;5.00;;;;;;;24.32;34.48;99861.38;4483261;32;33404;-59
2021/03/11 11:25:55;;;;;;;17.17;5.10;;;;;;;24.30;34.48;99857.22;4483156;32;34679;-46
2021/03/11 11:28:22;;;;;;;18.17;5.37;;;;;;;24.28;34.43;99841.09;4482915;32;35373;-67
2021/03/11 11:30:52;;;;;;;19.12;6.00;;;;;;;24.24;34.31;99834.41;4483187;32;33771;-70
2021/03/11 11:33:19;;;;;;;17.23;5.60;;;;;;;24.25;34.30;99821.62;4483368;32;34188;-54
2021/03/11 11:35:49;;;;;;;17.52;5.30;;;;;;;24.19;34.37;99812.47;4482937;32;33674;-62
2021/03/11 11:38:16;;;;;;;16.45;5.90;;;;;;;24.17;34.49;99811.88;4483223;32;33830;-56